createdAt,value
2019-02-10T00:02:15.820Z,5.90
2019-02-10T00:04:42.295Z,4.30
2019-02-10T00:07:09.178Z,4.62
2019-02-10T00:09:35.665Z,7.33
2019-02-10T00:12:02.258Z,7.83
2019-02-10T00:14:28.967Z,7.12
2019-02-10T00:16:55.439Z,4.30
2019-02-10T00:19:21.912Z,3.87
2019-02-10T00:21:48.413Z,4.25
2019-02-10T00:24:14.858Z,4.92
2019-02-10T00:26:41.635Z,4.97
2019-02-10T00:29:08.122Z,6.35
2019-02-10T00:31:34.573Z,5.00
2019-02-10T00:34:01.321Z,3.67
2019-02-10T00:36:32.903Z,4.47
2019-02-10T00:38:56.091Z,2.87
2019-02-10T00:41:22.590Z,3.80
2019-02-10T00:43:49.241Z,6.85
2019-02-10T00:46:15.829Z,3.90
2019-02-10T00:48:42.327Z,4.15
2019-02-10T00:51:09.098Z,4.33
2019-02-10T00:53:35.617Z,4.67
2019-02-10T00:56:02.107Z,2.67
2019-02-10T00:58:29.289Z,2.87
2019-02-10T01:00:55.885Z,6.30
2019-02-10T01:03:22.449Z,3.75
2019-02-10T01:05:49.082Z,4.80
2019-02-10T01:08:15.465Z,3.22
2019-02-10T01:10:41.922Z,4.85
2019-02-10T01:13:08.467Z,4.62
2019-02-10T01:15:34.946Z,4.15
2019-02-10T01:18:01.448Z,4.15
2019-02-10T01:20:31.367Z,4.58
2019-02-10T01:22:57.850Z,4.67
2019-02-10T01:25:24.324Z,4.30
2019-02-10T01:27:50.954Z,5.75
2019-02-10T01:30:17.422Z,8.78
2019-02-10T01:32:43.917Z,2.45
2019-02-10T01:35:10.726Z,3.33
2019-02-10T01:37:37.361Z,2.75
2019-02-10T01:40:06.046Z,2.58
2019-02-10T01:42:32.510Z,3.42
2019-02-10T01:44:59.193Z,3.70
2019-02-10T01:47:25.658Z,2.47
2019-02-10T01:49:52.179Z,3.22
2019-02-10T01:52:18.685Z,3.42
2019-02-10T01:54:45.178Z,2.35
2019-02-10T01:57:11.757Z,3.55
2019-02-10T01:59:38.274Z,2.72
2019-02-10T02:02:04.869Z,1.90
2019-02-10T02:04:31.202Z,2.90
2019-02-10T02:06:58.179Z,2.67
2019-02-10T02:09:24.866Z,3.72
2019-02-10T02:11:51.253Z,1.85
2019-02-10T02:14:17.764Z,4.40
2019-02-10T02:16:44.221Z,3.80
2019-02-10T02:19:10.910Z,2.95
2019-02-10T02:21:37.404Z,2.85
2019-02-10T02:24:03.900Z,3.60
2019-02-10T02:26:30.386Z,2.08
2019-02-10T02:28:56.858Z,2.20
2019-02-10T02:31:23.351Z,3.02
2019-02-10T02:33:49.799Z,3.75
2019-02-10T02:36:16.307Z,2.00
2019-02-10T02:38:42.798Z,1.20
2019-02-10T02:41:09.387Z,2.30
2019-02-10T02:43:35.866Z,2.45
2019-02-10T02:46:02.463Z,2.12
2019-02-10T02:48:29.313Z,2.85
2019-02-10T02:50:55.941Z,3.12
2019-02-10T02:53:22.404Z,1.95
2019-02-10T02:55:48.858Z,5.05
2019-02-10T02:58:15.341Z,2.42
2019-02-10T03:00:41.794Z,2.35
2019-02-10T03:03:08.442Z,2.52
2019-02-10T03:05:35.137Z,1.77
2019-02-10T03:08:01.631Z,1.07
2019-02-10T03:10:28.323Z,1.62
2019-02-10T03:12:54.802Z,5.22
2019-02-10T03:15:21.154Z,3.52
2019-02-10T03:17:47.809Z,1.90
2019-02-10T03:20:14.197Z,1.27
2019-02-10T03:22:40.694Z,6.10
2019-02-10T03:25:07.161Z,4.60
2019-02-10T03:27:33.869Z,3.40
2019-02-10T03:30:00.381Z,2.62
2019-02-10T03:32:26.800Z,3.37
2019-02-10T03:34:53.455Z,3.25
2019-02-10T03:37:26.843Z,2.12
2019-02-10T03:39:48.218Z,2.62
2019-02-10T03:42:14.712Z,3.67
2019-02-10T03:44:41.230Z,2.02
2019-02-10T03:47:07.738Z,1.55
2019-02-10T03:49:34.309Z,4.72
2019-02-10T03:52:00.886Z,3.25
2019-02-10T03:54:27.354Z,1.17
2019-02-10T03:56:53.830Z,4.92
2019-02-10T03:59:20.322Z,1.72
2019-02-10T04:01:47.128Z,3.10
2019-02-10T04:04:13.637Z,2.20
2019-02-10T04:06:40.125Z,1.65
2019-02-10T04:09:06.785Z,2.83
2019-02-10T04:11:33.239Z,3.47
2019-02-10T04:13:59.747Z,1.02
2019-02-10T04:16:26.326Z,1.98
2019-02-10T04:18:52.825Z,5.22
2019-02-10T04:21:19.307Z,2.15
2019-02-10T04:23:45.857Z,3.33
2019-02-10T04:26:12.330Z,3.02
2019-02-10T04:28:38.687Z,4.42
2019-02-10T04:31:05.429Z,2.80
2019-02-10T04:33:31.874Z,1.70
2019-02-10T04:35:58.398Z,1.98
2019-02-10T04:38:24.950Z,5.15
2019-02-10T04:40:51.344Z,1.30
2019-02-10T04:43:17.822Z,2.42
2019-02-10T04:45:44.471Z,2.65
2019-02-10T04:48:11.022Z,0.95
2019-02-10T04:50:37.581Z,1.92
2019-02-10T04:53:04.228Z,2.60
2019-02-10T04:55:30.762Z,2.52
2019-02-10T04:57:57.232Z,3.50
2019-02-10T05:00:23.982Z,1.25
2019-02-10T05:02:50.723Z,3.42
2019-02-10T05:05:17.333Z,1.02
2019-02-10T05:07:43.769Z,1.52
2019-02-10T05:10:10.398Z,1.72
2019-02-10T05:12:36.975Z,2.42
2019-02-10T05:15:05.080Z,2.80
2019-02-10T05:17:31.486Z,3.62
2019-02-10T05:19:57.950Z,3.65
2019-02-10T05:22:24.357Z,4.67
2019-02-10T05:24:50.819Z,3.70
2019-02-10T05:27:17.217Z,3.77
2019-02-10T05:29:43.898Z,3.45
2019-02-10T05:32:10.389Z,4.47
2019-02-10T05:34:36.874Z,5.08
2019-02-10T05:37:03.358Z,6.30
2019-02-10T05:39:29.901Z,3.95
2019-02-10T05:41:56.388Z,4.17
2019-02-10T05:44:22.857Z,5.20
2019-02-10T05:46:49.453Z,6.67
2019-02-10T05:49:15.923Z,5.30
2019-02-10T05:51:42.484Z,3.55
2019-02-10T05:54:09.050Z,6.83
2019-02-10T05:56:35.509Z,7.62
2019-02-10T05:59:01.970Z,8.35
2019-02-10T06:02:08.934Z,5.20
2019-02-10T06:04:42.245Z,7.53
2019-02-10T06:07:16.451Z,8.55
2019-02-10T06:09:43.330Z,7.85
2019-02-10T06:12:09.817Z,6.97
2019-02-10T06:14:36.307Z,8.35
2019-02-10T06:17:02.959Z,8.53
2019-02-10T06:19:29.422Z,10.78
2019-02-10T06:21:55.963Z,8.13
2019-02-10T06:24:22.614Z,6.12
2019-02-10T06:26:50.107Z,8.50
2019-02-10T06:29:16.446Z,6.17
2019-02-10T06:31:43.074Z,9.23
2019-02-10T06:34:09.613Z,8.85
2019-02-10T06:36:36.051Z,7.87
2019-02-10T06:39:03.914Z,8.78
2019-02-10T06:41:30.377Z,7.85
2019-02-10T06:43:56.853Z,8.28
2019-02-10T06:46:23.403Z,14.28
2019-02-10T06:48:49.888Z,11.80
2019-02-10T06:51:16.393Z,8.50
2019-02-10T06:53:42.963Z,5.75
2019-02-10T06:56:09.418Z,10.03
2019-02-10T06:58:35.912Z,9.08
2019-02-10T07:01:09.899Z,10.35
2019-02-10T07:03:43.022Z,10.40
2019-02-10T07:06:11.094Z,15.15
2019-02-10T07:08:37.605Z,11.25
2019-02-10T07:11:04.227Z,8.05
2019-02-10T07:13:35.968Z,10.00
2019-02-10T07:16:39.472Z,14.40
2019-02-10T07:19:42.705Z,13.55
2019-02-10T07:22:41.317Z,11.08
2019-02-10T07:25:17.367Z,16.07
2019-02-10T07:27:50.418Z,9.60
2019-02-10T07:30:23.341Z,14.28
2019-02-10T07:32:58.802Z,15.05
2019-02-10T07:35:28.970Z,17.02
2019-02-10T07:37:59.038Z,10.03
2019-02-10T07:40:54.737Z,9.70
2019-02-10T07:43:27.920Z,7.78
2019-02-10T07:46:20.426Z,7.25
2019-02-10T07:49:06.855Z,11.63
2019-02-10T07:51:52.038Z,13.98
2019-02-10T07:54:24.878Z,12.98
2019-02-10T07:56:58.023Z,10.28
2019-02-10T07:59:33.976Z,17.65
2019-02-10T08:02:04.138Z,12.50
2019-02-10T08:04:37.078Z,15.48
2019-02-10T08:07:13.434Z,7.50
2019-02-10T08:09:55.382Z,21.12
2019-02-10T08:12:28.534Z,15.32
2019-02-10T08:15:01.473Z,10.93
2019-02-10T08:17:40.701Z,15.68
2019-02-10T08:20:22.602Z,14.60
2019-02-10T08:23:07.962Z,13.20
2019-02-10T08:25:59.085Z,19.52
2019-02-10T08:28:36.998Z,13.03
2019-02-10T08:31:25.006Z,16.30
2019-02-10T08:34:18.426Z,11.75
2019-02-10T08:36:57.658Z,12.78
2019-02-10T08:39:33.599Z,13.45
2019-02-10T08:42:06.643Z,15.72
2019-02-10T08:44:42.713Z,12.55
2019-02-10T08:47:24.865Z,12.60
2019-02-10T08:50:00.845Z,7.92
2019-02-10T08:52:33.987Z,13.43
2019-02-10T08:55:05.240Z,14.45
2019-02-10T08:57:31.630Z,12.53
2019-02-10T08:59:58.155Z,11.25
2019-02-10T09:02:24.822Z,17.62
2019-02-10T09:04:51.379Z,11.73
2019-02-10T09:07:18.018Z,14.93
2019-02-10T09:09:44.492Z,12.40
2019-02-10T09:12:10.954Z,12.20
2019-02-10T09:14:37.487Z,8.80
2019-02-10T09:17:04.190Z,12.65
2019-02-10T09:19:30.730Z,8.58
2019-02-10T09:21:57.341Z,11.70
2019-02-10T09:24:24.097Z,15.32
2019-02-10T09:26:50.562Z,9.25
2019-02-10T09:29:17.115Z,16.55
2019-02-10T09:31:43.787Z,9.40
2019-02-10T09:34:10.192Z,10.78
2019-02-10T09:36:36.888Z,15.28
2019-02-10T09:39:10.601Z,15.83
2019-02-10T09:41:32.721Z,14.30
2019-02-10T09:43:59.195Z,10.20
2019-02-10T09:46:25.678Z,14.65
2019-02-10T09:48:52.166Z,6.67
2019-02-10T09:51:18.746Z,9.10
2019-02-10T09:53:45.384Z,6.78
2019-02-10T09:56:11.758Z,10.50
2019-02-10T09:58:38.274Z,12.03
2019-02-10T10:01:04.938Z,8.23
2019-02-10T10:03:31.391Z,4.05
2019-02-10T10:05:57.690Z,16.23
2019-02-10T10:08:24.198Z,8.65
2019-02-10T10:10:50.661Z,11.73
2019-02-10T10:13:17.218Z,7.87
2019-02-10T10:15:43.838Z,11.50
2019-02-10T10:18:10.306Z,15.65
2019-02-10T10:20:36.761Z,6.70
2019-02-10T10:23:03.355Z,12.43
2019-02-10T10:25:29.716Z,10.13
2019-02-10T10:27:56.100Z,8.15
2019-02-10T10:30:22.554Z,12.30
2019-02-10T10:32:48.959Z,16.40
2019-02-10T10:35:15.670Z,8.85
2019-02-10T10:37:42.303Z,8.28
2019-02-10T10:40:09.778Z,15.48
2019-02-10T10:42:36.358Z,8.85
2019-02-10T10:45:05.106Z,13.20
2019-02-10T10:47:31.560Z,10.88
2019-02-10T10:49:58.026Z,11.95
2019-02-10T10:52:24.496Z,11.20
2019-02-10T10:54:50.956Z,9.20
2019-02-10T10:57:17.329Z,11.30
2019-02-10T10:59:44.077Z,12.93
2019-02-10T11:02:10.558Z,12.30
2019-02-10T11:04:37.089Z,8.78
2019-02-10T11:07:03.762Z,8.13
2019-02-10T11:09:35.429Z,11.40
2019-02-10T11:11:58.512Z,11.63
2019-02-10T11:14:25.245Z,9.83
2019-02-10T11:16:51.878Z,11.03
2019-02-10T11:19:18.366Z,11.63
2019-02-10T11:21:44.830Z,8.40
2019-02-10T11:24:11.357Z,8.90
2019-02-10T11:26:37.811Z,10.03
2019-02-10T11:29:04.491Z,7.62
2019-02-10T11:31:30.946Z,9.50
2019-02-10T11:33:57.462Z,6.40
2019-02-10T11:36:23.937Z,8.75
2019-02-10T11:38:50.576Z,11.45
2019-02-10T11:41:17.192Z,10.13
2019-02-10T11:43:43.673Z,7.30
2019-02-10T11:46:10.185Z,11.20
2019-02-10T11:48:36.779Z,5.65
2019-02-10T11:51:03.254Z,11.08
2019-02-10T11:53:29.686Z,14.00
2019-02-10T11:55:56.141Z,10.03
2019-02-10T11:58:22.826Z,9.50
2019-02-10T12:00:49.282Z,6.65
2019-02-10T12:03:15.763Z,10.65
2019-02-10T12:05:42.424Z,9.23
2019-02-10T12:08:08.913Z,8.60
2019-02-10T12:10:35.474Z,8.50
2019-02-10T12:13:02.078Z,5.47
2019-02-10T12:15:28.639Z,9.08
2019-02-10T12:17:55.152Z,8.63
2019-02-10T12:20:21.884Z,7.92
2019-02-10T12:22:50.188Z,10.63
2019-02-10T12:25:16.635Z,7.33
2019-02-10T12:27:43.298Z,10.95
2019-02-10T12:30:13.553Z,8.35
2019-02-10T12:32:40.023Z,8.60
2019-02-10T12:35:08.251Z,6.45
2019-02-10T12:37:34.698Z,9.20
2019-02-10T12:40:01.185Z,6.25
2019-02-10T12:42:27.829Z,10.38
2019-02-10T12:44:54.302Z,9.50
2019-02-10T12:47:20.756Z,11.65
2019-02-10T12:49:47.427Z,11.35
2019-02-10T12:52:13.897Z,8.80
2019-02-10T12:54:40.362Z,7.33
2019-02-10T12:57:07.107Z,8.13
2019-02-10T12:59:33.623Z,7.95
2019-02-10T13:02:00.096Z,7.10
2019-02-10T13:04:26.685Z,8.70
2019-02-10T13:06:53.239Z,15.55
2019-02-10T13:09:19.728Z,11.83
2019-02-10T13:11:46.425Z,7.03
2019-02-10T13:14:12.905Z,11.45
2019-02-10T13:16:39.784Z,12.33
2019-02-10T13:19:06.419Z,6.42
2019-02-10T13:21:33.075Z,7.37
2019-02-10T13:23:59.546Z,6.67
2019-02-10T13:26:26.148Z,9.73
2019-02-10T13:28:52.617Z,6.53
2019-02-10T13:31:18.994Z,7.37
2019-02-10T13:33:45.606Z,10.05
2019-02-10T13:36:12.063Z,6.25
2019-02-10T13:38:38.583Z,8.03
2019-02-10T13:41:05.266Z,11.15
2019-02-10T13:43:33.465Z,9.93
2019-02-10T13:46:00.260Z,10.68
2019-02-10T13:48:26.880Z,11.10
2019-02-10T13:50:53.416Z,9.28
2019-02-10T13:53:19.889Z,7.05
2019-02-10T13:55:46.385Z,9.10
2019-02-10T13:58:12.854Z,8.83
2019-02-10T14:00:39.325Z,6.33
2019-02-10T14:03:05.961Z,11.15
2019-02-10T14:05:32.794Z,7.78
2019-02-10T14:07:59.329Z,7.83
2019-02-10T14:10:26.173Z,8.40
2019-02-10T14:12:54.556Z,7.17
2019-02-10T14:15:21.143Z,8.08
2019-02-10T14:17:47.791Z,11.57
2019-02-10T14:20:17.946Z,9.95
2019-02-10T14:22:44.435Z,5.17
2019-02-10T14:25:11.302Z,7.45
2019-02-10T14:27:37.659Z,10.03
2019-02-10T14:30:07.838Z,7.25
2019-02-10T14:32:34.309Z,6.45
2019-02-10T14:35:00.685Z,9.65
2019-02-10T14:37:26.976Z,7.20
2019-02-10T14:39:53.443Z,7.62
2019-02-10T14:42:19.910Z,7.80
2019-02-10T14:44:46.462Z,6.97
2019-02-10T14:47:12.914Z,7.87
2019-02-10T14:49:39.394Z,5.85
2019-02-10T14:52:06.246Z,5.80
2019-02-10T14:54:32.623Z,4.87
2019-02-10T14:56:59.115Z,7.92
2019-02-10T14:59:25.477Z,7.47
2019-02-10T15:01:52.383Z,9.95
2019-02-10T15:04:18.853Z,8.60
2019-02-10T15:06:45.311Z,6.35
2019-02-10T15:09:11.791Z,9.03
2019-02-10T15:11:38.354Z,7.45
2019-02-10T15:14:04.865Z,11.05
2019-02-10T15:16:31.367Z,7.35
2019-02-10T15:18:57.943Z,9.80
2019-02-10T15:21:24.435Z,6.30
2019-02-10T15:23:51.065Z,7.12
2019-02-10T15:26:17.513Z,7.53
2019-02-10T15:28:43.896Z,5.28
2019-02-10T15:31:10.386Z,9.00
2019-02-10T15:33:37.027Z,7.25
2019-02-10T15:36:03.525Z,8.00
2019-02-10T15:38:30.222Z,6.17
2019-02-10T15:40:56.812Z,10.93
2019-02-10T15:43:23.313Z,7.70
2019-02-10T15:45:49.985Z,8.88
2019-02-10T15:48:16.614Z,8.13
2019-02-10T15:50:43.246Z,10.88
2019-02-10T15:53:09.750Z,6.25
2019-02-10T15:55:36.300Z,6.78
2019-02-10T15:58:02.826Z,7.20
2019-02-10T16:00:29.370Z,6.90
2019-02-10T16:02:56.078Z,8.15
2019-02-10T16:05:22.607Z,5.70
2019-02-10T16:07:49.093Z,7.22
2019-02-10T16:10:15.566Z,4.95
2019-02-10T16:12:42.210Z,7.78
2019-02-10T16:15:10.401Z,7.37
2019-02-10T16:17:36.856Z,7.78
2019-02-10T16:20:06.874Z,9.45
2019-02-10T16:22:33.592Z,5.75
2019-02-10T16:25:00.275Z,8.33
2019-02-10T16:27:26.793Z,9.73
2019-02-10T16:29:53.451Z,7.80
2019-02-10T16:32:19.962Z,7.10
2019-02-10T16:34:46.395Z,8.58
2019-02-10T16:37:12.711Z,7.50
2019-02-10T16:39:39.057Z,8.75
2019-02-10T16:42:05.544Z,9.33
2019-02-10T16:44:32.902Z,5.97
2019-02-10T16:46:59.358Z,8.45
2019-02-10T16:49:25.856Z,5.95
2019-02-10T16:51:52.531Z,5.17
2019-02-10T16:54:19.121Z,5.15
2019-02-10T16:56:46.362Z,7.42
2019-02-10T16:59:13.218Z,9.30
2019-02-10T17:01:39.509Z,12.18
2019-02-10T17:04:05.959Z,7.58
2019-02-10T17:06:32.426Z,8.75
2019-02-10T17:08:59.113Z,6.37
2019-02-10T17:11:25.598Z,7.75
2019-02-10T17:13:52.078Z,6.00
2019-02-10T17:16:19.580Z,9.95
2019-02-10T17:18:46.133Z,6.80
2019-02-10T17:21:12.608Z,8.28
2019-02-10T17:23:39.146Z,7.85
2019-02-10T17:26:05.707Z,9.10
2019-02-10T17:28:32.205Z,5.58
2019-02-10T17:30:58.781Z,7.92
2019-02-10T17:33:25.178Z,10.08
2019-02-10T17:35:51.735Z,9.35
2019-02-10T17:38:18.353Z,7.33
2019-02-10T17:40:48.410Z,9.78
2019-02-10T17:43:14.987Z,6.83
2019-02-10T17:45:41.361Z,7.87
2019-02-10T17:48:08.080Z,9.55
2019-02-10T17:50:34.707Z,7.75
2019-02-10T17:53:01.175Z,9.00
2019-02-10T17:55:27.564Z,9.40
2019-02-10T17:57:54.188Z,13.45
2019-02-10T18:00:22.624Z,6.62
2019-02-10T18:02:48.988Z,7.62
2019-02-10T18:05:15.607Z,10.25
2019-02-10T18:07:42.149Z,12.93
2019-02-10T18:10:14.943Z,13.22
2019-02-10T18:12:41.634Z,8.48
2019-02-10T18:15:11.317Z,11.00
2019-02-10T18:17:42.651Z,8.90
2019-02-10T18:20:20.345Z,9.03
2019-02-10T18:22:54.443Z,6.30
2019-02-10T18:25:22.849Z,7.80
2019-02-10T18:27:51.339Z,12.37
2019-02-10T18:30:30.079Z,7.55
2019-02-10T18:33:01.246Z,12.05
2019-02-10T18:35:35.413Z,7.12
2019-02-10T18:38:03.792Z,9.13
2019-02-10T18:40:34.662Z,9.90
2019-02-10T18:43:12.288Z,9.00
2019-02-10T18:45:43.171Z,7.85
2019-02-10T18:48:14.594Z,11.90
2019-02-10T18:50:45.825Z,9.85
2019-02-10T18:53:23.431Z,9.58
2019-02-10T18:55:51.807Z,8.60
2019-02-10T18:58:29.094Z,9.33
2019-02-10T19:01:09.169Z,12.13
2019-02-10T19:03:52.519Z,12.60
2019-02-10T19:06:20.767Z,12.58
2019-02-10T19:08:49.153Z,14.38
2019-02-10T19:11:26.524Z,15.18
2019-02-10T19:13:54.949Z,11.73
2019-02-10T19:16:25.922Z,8.40
2019-02-10T19:18:54.707Z,15.55
2019-02-10T19:21:23.180Z,13.08
2019-02-10T19:23:57.669Z,10.72
2019-02-10T19:26:26.128Z,14.73
2019-02-10T19:28:54.615Z,12.13
2019-02-10T19:31:23.233Z,11.65
2019-02-10T19:33:51.657Z,9.18
2019-02-10T19:36:36.246Z,9.35
2019-02-10T19:39:21.319Z,14.63
2019-02-10T19:41:55.705Z,13.98
2019-02-10T19:44:25.742Z,20.23
2019-02-10T19:46:57.085Z,14.03
2019-02-10T19:49:31.448Z,16.60
2019-02-10T19:52:04.064Z,12.13
2019-02-10T19:54:41.291Z,14.75
2019-02-10T19:57:17.253Z,10.23
2019-02-10T19:59:45.745Z,13.93
2019-02-10T20:02:20.404Z,13.88
2019-02-10T20:04:51.334Z,16.90
2019-02-10T20:07:22.230Z,15.35
2019-02-10T20:10:09.635Z,14.10
2019-02-10T20:12:47.060Z,17.02
2019-02-10T20:15:18.584Z,13.78
2019-02-10T20:17:47.230Z,16.90
2019-02-10T20:20:15.807Z,12.10
2019-02-10T20:22:44.177Z,14.23
2019-02-10T20:25:15.095Z,13.35
2019-02-10T20:27:43.625Z,12.60
2019-02-10T20:30:17.769Z,14.90
2019-02-10T20:32:51.885Z,12.43
2019-02-10T20:35:28.836Z,15.23
2019-02-10T20:37:57.509Z,12.65
2019-02-10T20:40:28.525Z,12.43
2019-02-10T20:42:59.577Z,11.75
2019-02-10T20:45:44.114Z,16.37
2019-02-10T20:48:30.442Z,14.10
2019-02-10T20:50:58.782Z,14.07
2019-02-10T20:53:36.801Z,13.28
2019-02-10T20:56:05.128Z,17.07
2019-02-10T20:58:33.513Z,12.65
2019-02-10T21:01:02.092Z,14.98
2019-02-10T21:03:30.511Z,14.55
2019-02-10T21:06:01.724Z,8.30
2019-02-10T21:08:33.040Z,14.68
2019-02-10T21:11:04.015Z,15.83
2019-02-10T21:13:41.486Z,13.38
2019-02-10T21:16:27.863Z,13.08
2019-02-10T21:19:11.583Z,9.13
2019-02-10T21:21:48.551Z,10.93
2019-02-10T21:27:11.873Z,14.25
2019-02-10T21:29:56.470Z,12.80
2019-02-10T21:32:41.116Z,14.28
2019-02-10T21:35:12.382Z,12.85
2019-02-10T21:37:44.932Z,12.55
2019-02-10T21:40:15.793Z,14.68
2019-02-10T21:42:44.062Z,17.48
2019-02-10T21:45:13.558Z,13.72
2019-02-10T21:47:41.784Z,11.97
2019-02-10T21:50:08.230Z,14.58
2019-02-10T21:52:34.714Z,21.35
2019-02-10T21:55:01.058Z,16.20
2019-02-10T21:57:27.530Z,10.20
2019-02-10T21:59:55.985Z,16.23
2019-02-10T22:02:22.421Z,11.18
2019-02-10T22:04:48.894Z,16.97
2019-02-10T22:07:15.510Z,12.53
2019-02-10T22:09:41.755Z,19.92
2019-02-10T22:12:08.056Z,15.20
2019-02-10T22:14:34.505Z,15.15
2019-02-10T22:17:00.773Z,15.30
2019-02-10T22:19:27.137Z,14.33
2019-02-10T22:21:53.611Z,16.20
2019-02-10T22:24:19.954Z,15.53
2019-02-10T22:26:46.322Z,17.20
2019-02-10T22:29:12.843Z,15.88
2019-02-10T22:31:39.220Z,18.87
2019-02-10T22:34:05.866Z,19.12
2019-02-10T22:36:32.399Z,12.25
2019-02-10T22:38:58.840Z,13.93
2019-02-10T22:41:25.250Z,14.95
2019-02-10T22:43:51.786Z,13.88
2019-02-10T22:46:18.235Z,12.35
2019-02-10T22:48:44.674Z,12.65
2019-02-10T22:51:11.310Z,11.88
2019-02-10T22:53:37.823Z,12.63
2019-02-10T22:56:04.284Z,11.65
2019-02-10T22:58:30.758Z,15.05
2019-02-10T23:00:59.512Z,14.30
2019-02-10T23:03:25.874Z,17.32
2019-02-10T23:05:52.530Z,13.10
2019-02-10T23:08:18.999Z,15.55
2019-02-10T23:10:45.354Z,16.50
2019-02-10T23:13:11.957Z,9.93
2019-02-10T23:15:38.417Z,14.58
2019-02-10T23:18:04.881Z,10.05
2019-02-10T23:20:31.352Z,13.35
2019-02-10T23:22:57.789Z,10.43
2019-02-10T23:25:24.142Z,11.43
2019-02-10T23:27:50.597Z,12.73
2019-02-10T23:30:17.051Z,12.37
2019-02-10T23:32:43.501Z,11.90
2019-02-10T23:35:10.150Z,15.95
2019-02-10T23:37:36.495Z,17.92
2019-02-10T23:40:04.985Z,16.65
2019-02-10T23:42:31.629Z,18.98
2019-02-10T23:44:57.881Z,17.40
2019-02-10T23:47:24.274Z,17.48
2019-02-10T23:49:50.525Z,19.37
2019-02-10T23:52:16.877Z,16.87
2019-02-10T23:54:43.336Z,15.78
2019-02-10T23:57:09.784Z,19.02
2019-02-10T23:59:36.241Z,25.35
